createdAt,value
2017-08-25T00:01:20.443Z,73.54
2017-08-25T00:03:46.546Z,73.45
2017-08-25T00:06:12.659Z,73.80
2017-08-25T00:08:38.749Z,73.69
2017-08-25T00:11:04.875Z,73.42
2017-08-25T00:13:30.950Z,73.74
2017-08-25T00:15:57.014Z,73.75
2017-08-25T00:18:23.144Z,73.99
2017-08-25T00:20:49.202Z,73.93
2017-08-25T00:23:15.303Z,74.52
2017-08-25T00:25:41.481Z,74.58
2017-08-25T00:28:07.602Z,74.54
2017-08-25T00:30:33.673Z,74.81
2017-08-25T00:32:59.780Z,74.68
2017-08-25T00:35:25.865Z,74.54
2017-08-25T00:37:51.959Z,74.74
2017-08-25T00:40:18.115Z,74.64
2017-08-25T00:42:44.239Z,74.49
2017-08-25T00:45:10.320Z,74.61
2017-08-25T00:47:36.493Z,74.62
2017-08-25T00:50:02.600Z,74.52
2017-08-25T00:52:28.700Z,74.24
2017-08-25T00:54:54.810Z,74.09
2017-08-25T00:57:20.898Z,73.77
2017-08-25T00:59:46.976Z,73.93
2017-08-25T01:02:13.142Z,74.18
2017-08-25T01:04:39.286Z,74.03
2017-08-25T01:07:05.400Z,73.72
2017-08-25T01:09:31.489Z,73.31
2017-08-25T01:11:57.578Z,73.26
2017-08-25T01:14:23.653Z,72.97
2017-08-25T01:16:49.791Z,72.54
2017-08-25T01:19:15.892Z,72.41
2017-08-25T01:21:41.977Z,72.06
2017-08-25T01:24:08.157Z,72.08
2017-08-25T01:26:34.256Z,72.17
2017-08-25T01:29:00.374Z,73.16
2017-08-25T01:31:26.482Z,73.57
2017-08-25T01:33:52.557Z,74.23
2017-08-25T01:36:18.662Z,74.02
2017-08-25T01:38:44.778Z,74.66
2017-08-25T01:41:10.940Z,74.52
2017-08-25T01:43:37.011Z,74.34
2017-08-25T01:46:03.227Z,74.62
2017-08-25T01:48:29.308Z,74.81
2017-08-25T01:50:55.386Z,73.69
2017-08-25T01:53:21.508Z,73.39
2017-08-25T01:55:47.590Z,73.05
2017-08-25T01:58:13.677Z,72.58
2017-08-25T02:00:39.816Z,72.45
2017-08-25T02:03:05.921Z,72.91
2017-08-25T02:05:32.018Z,73.84
2017-08-25T02:07:58.120Z,73.21
2017-08-25T02:10:24.198Z,73.14
2017-08-25T02:12:50.257Z,72.52
2017-08-25T02:15:16.388Z,71.90
2017-08-25T02:17:42.462Z,72.31
2017-08-25T02:20:08.563Z,72.71
2017-08-25T02:22:34.672Z,71.86
2017-08-25T02:25:07.834Z,71.68
2017-08-25T02:27:33.935Z,71.72
2017-08-25T02:30:00.098Z,72.18
2017-08-25T02:32:26.202Z,72.20
2017-08-25T02:34:52.301Z,72.03
2017-08-25T02:37:18.431Z,72.28
2017-08-25T02:39:44.556Z,72.57
2017-08-25T02:42:10.661Z,72.83
2017-08-25T02:44:36.781Z,73.38
2017-08-25T02:47:02.882Z,73.51
2017-08-25T02:49:28.971Z,73.85
2017-08-25T02:51:55.140Z,74.39
2017-08-25T02:54:21.245Z,74.76
2017-08-25T02:56:47.336Z,75.05
2017-08-25T02:59:13.411Z,75.67
2017-08-25T03:01:39.500Z,75.95
2017-08-25T03:04:05.678Z,75.89
2017-08-25T03:06:31.789Z,75.10
2017-08-25T03:08:57.913Z,75.68
2017-08-25T03:11:24.013Z,76.15
2017-08-25T03:13:50.123Z,76.11
2017-08-25T03:16:16.247Z,75.80
2017-08-25T03:18:42.371Z,76.37
2017-08-25T03:21:08.493Z,77.07
2017-08-25T03:23:34.599Z,76.92
2017-08-25T03:26:00.701Z,77.11
2017-08-25T03:28:26.827Z,76.79
2017-08-25T03:30:52.980Z,76.74
2017-08-25T03:33:19.099Z,76.93
2017-08-25T03:35:45.199Z,76.79
2017-08-25T03:38:11.266Z,76.23
2017-08-25T03:40:37.336Z,76.28
2017-08-25T03:43:03.502Z,76.44
2017-08-25T03:45:29.595Z,75.93
2017-08-25T03:47:55.696Z,75.59
2017-08-25T03:50:21.805Z,74.90
2017-08-25T03:52:47.935Z,75.54
2017-08-25T03:55:14.013Z,75.07
2017-08-25T03:57:40.155Z,75.24
2017-08-25T04:00:06.275Z,75.35
2017-08-25T04:02:32.365Z,75.33
2017-08-25T04:04:58.483Z,75.08
2017-08-25T04:07:24.662Z,75.11
2017-08-25T04:09:50.751Z,74.68
2017-08-25T04:12:16.901Z,74.50
2017-08-25T04:14:42.969Z,74.81
2017-08-25T04:17:09.085Z,74.95
2017-08-25T04:19:35.321Z,74.93
2017-08-25T04:22:01.403Z,74.84
2017-08-25T04:24:27.493Z,74.52
2017-08-25T04:26:53.659Z,74.61
2017-08-25T04:29:19.775Z,74.55
2017-08-25T04:31:45.902Z,74.67
2017-08-25T04:34:12.033Z,74.39
2017-08-25T04:36:38.115Z,74.47
2017-08-25T04:39:04.239Z,73.60
2017-08-25T04:41:30.367Z,72.91
2017-08-25T04:43:56.479Z,72.31
2017-08-25T04:46:22.568Z,72.24
2017-08-25T04:48:48.731Z,71.96
2017-08-25T04:51:14.872Z,72.02
2017-08-25T04:53:40.975Z,72.24
2017-08-25T04:56:07.099Z,72.19
2017-08-25T04:58:33.257Z,72.27
2017-08-25T05:01:06.310Z,72.78
2017-08-25T05:03:32.413Z,72.81
2017-08-25T05:05:58.540Z,72.98
2017-08-25T05:08:24.690Z,72.73
2017-08-25T05:10:50.777Z,72.52
2017-08-25T05:13:16.849Z,72.19
2017-08-25T05:15:42.942Z,71.86
2017-08-25T05:18:09.014Z,70.80
2017-08-25T05:20:35.100Z,69.23
2017-08-25T05:23:01.219Z,68.82
2017-08-25T05:25:27.292Z,68.03
2017-08-25T05:27:53.385Z,67.94
2017-08-25T05:30:19.511Z,68.13
2017-08-25T05:32:45.639Z,68.33
2017-08-25T05:35:11.807Z,68.32
2017-08-25T05:37:37.936Z,67.92
2017-08-25T05:40:04.122Z,67.49
2017-08-25T05:42:30.205Z,66.73
2017-08-25T05:44:56.330Z,66.31
2017-08-25T05:47:22.421Z,65.43
2017-08-25T05:49:48.481Z,63.72
2017-08-25T05:52:14.603Z,64.21
2017-08-25T05:54:40.717Z,62.86
2017-08-25T05:57:06.809Z,61.73
2017-08-25T05:59:32.961Z,61.97
2017-08-25T06:01:59.072Z,61.44
2017-08-25T06:04:25.167Z,60.85
2017-08-25T06:06:51.327Z,60.62
2017-08-25T06:09:17.492Z,60.51
2017-08-25T06:11:43.592Z,60.25
2017-08-25T06:14:09.683Z,60.31
2017-08-25T06:16:35.795Z,58.63
2017-08-25T06:19:02.176Z,58.39
2017-08-25T06:21:28.273Z,56.88
2017-08-25T06:23:54.387Z,55.72
2017-08-25T06:26:20.535Z,55.95
2017-08-25T06:28:46.688Z,55.94
2017-08-25T06:31:12.829Z,56.04
2017-08-25T06:33:39.014Z,55.83
2017-08-25T06:36:05.145Z,55.38
2017-08-25T06:38:31.283Z,54.99
2017-08-25T06:40:57.413Z,54.28
2017-08-25T06:43:23.551Z,53.76
2017-08-25T06:45:49.665Z,53.88
2017-08-25T06:48:15.775Z,54.43
2017-08-25T06:50:41.881Z,54.08
2017-08-25T06:53:08.009Z,54.27
2017-08-25T06:55:34.071Z,53.53
2017-08-25T06:58:00.182Z,52.21
2017-08-25T07:00:26.329Z,50.88
2017-08-25T07:02:52.410Z,49.67
2017-08-25T07:05:18.516Z,48.89
2017-08-25T07:07:44.583Z,49.19
2017-08-25T07:10:10.701Z,48.38
2017-08-25T07:12:36.814Z,47.17
2017-08-25T07:15:02.917Z,46.89
2017-08-25T07:17:28.993Z,46.99
2017-08-25T07:19:55.109Z,48.10
2017-08-25T07:22:21.250Z,48.47
2017-08-25T07:24:47.441Z,48.14
2017-08-25T07:27:13.523Z,48.66
2017-08-25T07:29:39.630Z,47.64
2017-08-25T07:32:05.746Z,47.47
2017-08-25T07:34:31.863Z,46.08
2017-08-25T07:36:57.937Z,48.17
2017-08-25T07:39:24.053Z,48.08
2017-08-25T07:41:50.145Z,47.95
2017-08-25T07:44:16.249Z,47.44
2017-08-25T07:46:42.353Z,48.12
2017-08-25T07:49:08.477Z,47.26
2017-08-25T07:51:34.547Z,46.52
2017-08-25T07:54:00.632Z,45.80
2017-08-25T07:56:26.787Z,45.07
2017-08-25T07:58:52.836Z,44.50
2017-08-25T08:01:19.074Z,43.83
2017-08-25T08:03:45.165Z,43.50
2017-08-25T08:06:11.254Z,43.03
2017-08-25T08:08:38.235Z,43.26
2017-08-25T08:11:04.320Z,42.80
2017-08-25T08:13:30.416Z,43.18
2017-08-25T08:15:56.521Z,44.06
2017-08-25T08:18:22.607Z,44.57
2017-08-25T08:20:48.724Z,45.13
2017-08-25T08:23:14.846Z,45.41
2017-08-25T08:25:41.012Z,44.81
2017-08-25T08:28:07.124Z,44.31
2017-08-25T08:30:33.214Z,43.12
2017-08-25T08:32:59.294Z,44.43
2017-08-25T08:35:25.470Z,44.87
2017-08-25T08:37:51.545Z,44.68
2017-08-25T08:40:17.622Z,42.73
2017-08-25T08:42:43.779Z,42.52
2017-08-25T08:45:09.877Z,43.13
2017-08-25T08:47:35.960Z,44.63
2017-08-25T08:50:02.092Z,43.70
2017-08-25T08:52:28.177Z,43.26
2017-08-25T08:54:54.326Z,42.85
2017-08-25T08:57:20.431Z,41.72
2017-08-25T08:59:46.507Z,41.40
2017-08-25T09:02:12.613Z,41.85
2017-08-25T09:04:38.717Z,42.97
2017-08-25T09:07:04.810Z,43.99
2017-08-25T09:09:30.947Z,43.59
2017-08-25T09:11:57.051Z,42.50
2017-08-25T09:14:23.145Z,41.23
2017-08-25T09:16:49.251Z,42.12
2017-08-25T09:19:15.360Z,41.54
2017-08-25T09:21:41.485Z,42.04
2017-08-25T09:24:07.642Z,42.42
2017-08-25T09:26:33.741Z,40.77
2017-08-25T09:28:59.806Z,39.25
2017-08-25T09:31:25.951Z,39.21
2017-08-25T09:33:52.034Z,38.17
2017-08-25T09:36:18.136Z,37.43
2017-08-25T09:38:44.227Z,37.08
2017-08-25T09:41:10.348Z,34.92
2017-08-25T09:43:36.448Z,35.61
2017-08-25T09:46:02.535Z,36.04
2017-08-25T09:48:28.648Z,33.73
2017-08-25T09:50:54.824Z,33.90
2017-08-25T09:53:20.926Z,34.76
2017-08-25T09:55:47.044Z,34.50
2017-08-25T09:58:13.194Z,33.97
2017-08-25T10:00:39.282Z,34.02
2017-08-25T10:03:05.384Z,34.80
2017-08-25T10:05:31.534Z,35.69
2017-08-25T10:07:57.663Z,35.81
2017-08-25T10:10:23.746Z,35.19
2017-08-25T10:12:49.860Z,34.28
2017-08-25T10:15:15.956Z,35.00
2017-08-25T10:17:42.066Z,35.03
2017-08-25T10:20:08.236Z,35.94
2017-08-25T10:22:34.316Z,36.64
2017-08-25T10:25:00.440Z,37.16
2017-08-25T10:27:26.546Z,35.52
2017-08-25T10:29:52.700Z,35.42
2017-08-25T10:32:18.822Z,36.00
2017-08-25T10:35:03.607Z,36.38
2017-08-25T10:37:48.338Z,34.86
2017-08-25T10:43:54.207Z,35.54
2017-08-25T10:46:20.313Z,36.58
2017-08-25T10:48:46.411Z,34.27
2017-08-25T10:51:12.543Z,33.53
2017-08-25T10:53:38.676Z,34.82
2017-08-25T10:56:04.773Z,35.30
2017-08-25T10:58:30.867Z,35.68
2017-08-25T11:00:56.973Z,34.35
2017-08-25T11:03:23.106Z,32.55
2017-08-25T11:05:49.268Z,30.93
2017-08-25T11:08:18.563Z,30.53
2017-08-25T11:10:44.693Z,29.89
2017-08-25T11:13:10.843Z,30.55
2017-08-25T11:15:36.958Z,30.92
2017-08-25T11:18:03.075Z,31.70
2017-08-25T11:20:29.261Z,31.30
2017-08-25T11:22:55.385Z,30.38
2017-08-25T11:25:21.678Z,29.31
2017-08-25T11:27:48.666Z,27.76
2017-08-25T11:30:14.753Z,27.50
2017-08-25T11:32:40.943Z,28.01
2017-08-25T11:35:07.055Z,29.55
2017-08-25T11:37:33.171Z,29.40
2017-08-25T11:39:59.255Z,27.90
2017-08-25T11:42:25.382Z,29.88
2017-08-25T11:44:51.502Z,28.80
2017-08-25T11:47:17.709Z,27.33
2017-08-25T11:49:43.822Z,26.76
2017-08-25T11:52:09.936Z,24.40
2017-08-25T11:54:36.048Z,24.64
2017-08-25T11:57:02.165Z,23.57
2017-08-25T11:59:28.224Z,24.10
2017-08-25T12:01:54.367Z,23.32
2017-08-25T12:04:20.476Z,19.96
2017-08-25T12:06:46.583Z,18.59
2017-08-25T12:09:12.660Z,16.46
2017-08-25T12:11:39.513Z,14.97
2017-08-25T12:14:05.702Z,13.53
2017-08-25T12:16:31.886Z,14.11
2017-08-25T12:18:58.012Z,17.19
2017-08-25T12:21:24.093Z,19.25
2017-08-25T12:23:50.316Z,19.55
2017-08-25T12:26:16.448Z,19.75
2017-08-25T12:28:42.534Z,17.48
2017-08-25T12:31:08.641Z,17.19
2017-08-25T12:33:35.788Z,20.06
2017-08-25T12:36:01.997Z,22.33
2017-08-25T12:38:28.248Z,20.67
2017-08-25T12:40:54.509Z,19.48
2017-08-25T12:43:20.664Z,18.29
2017-08-25T12:45:46.903Z,17.36
2017-08-25T12:48:13.134Z,15.21
2017-08-25T12:50:39.349Z,15.86
2017-08-25T12:53:05.510Z,17.90
2017-08-25T12:55:31.674Z,17.74
2017-08-25T12:57:57.900Z,17.58
2017-08-25T13:00:24.072Z,15.71
2017-08-25T13:02:50.210Z,15.12
2017-08-25T13:05:16.282Z,14.44
2017-08-25T13:07:42.406Z,13.05
2017-08-25T13:10:08.502Z,11.58
2017-08-25T13:12:34.629Z,11.77
2017-08-25T13:15:00.722Z,11.07
2017-08-25T13:17:26.842Z,10.35
2017-08-25T13:19:52.942Z,10.10
2017-08-25T13:22:19.206Z,11.61
2017-08-25T13:24:45.294Z,12.48
2017-08-25T13:27:11.442Z,11.68
2017-08-25T13:29:37.550Z,11.15
2017-08-25T13:32:03.632Z,11.41
2017-08-25T13:34:29.718Z,11.93
2017-08-25T13:36:56.350Z,12.44
2017-08-25T13:39:22.405Z,13.41
2017-08-25T13:41:48.518Z,14.14
2017-08-25T13:44:14.673Z,13.12
2017-08-25T13:46:40.773Z,12.46
2017-08-25T13:49:06.860Z,10.88
2017-08-25T13:51:32.938Z,11.70
2017-08-25T13:53:59.041Z,14.19
2017-08-25T13:56:25.179Z,14.85
2017-08-25T13:58:51.276Z,14.82
2017-08-25T14:01:17.374Z,13.89
2017-08-25T14:03:43.524Z,16.83
2017-08-25T14:06:09.597Z,16.80
2017-08-25T14:08:35.722Z,15.66
2017-08-25T14:11:01.808Z,13.82
2017-08-25T14:13:27.908Z,12.36
2017-08-25T14:15:54.061Z,12.35
2017-08-25T14:18:20.174Z,12.76
2017-08-25T14:20:46.539Z,11.76
2017-08-25T14:23:12.632Z,11.71
2017-08-25T14:25:38.744Z,11.38
2017-08-25T14:28:04.816Z,11.19
2017-08-25T14:30:30.890Z,10.50
2017-08-25T14:32:57.230Z,10.35
2017-08-25T14:35:23.355Z,11.88
2017-08-25T14:37:49.448Z,12.75
2017-08-25T14:40:15.540Z,13.00
2017-08-25T14:42:41.679Z,12.79
2017-08-25T14:45:07.801Z,10.94
2017-08-25T14:47:33.907Z,11.17
2017-08-25T14:50:00.008Z,10.70
2017-08-25T14:52:26.131Z,11.03
2017-08-25T14:54:52.294Z,10.98
2017-08-25T14:57:18.411Z,10.63
2017-08-25T14:59:44.541Z,10.02
2017-08-25T15:02:10.705Z,9.41
2017-08-25T15:04:37.758Z,9.68
2017-08-25T15:07:03.878Z,9.89
2017-08-25T15:09:30.038Z,11.50
2017-08-25T15:11:56.185Z,12.16
2017-08-25T15:14:22.319Z,12.70
2017-08-25T15:16:48.443Z,12.64
2017-08-25T15:19:14.558Z,12.84
2017-08-25T15:21:40.672Z,12.79
2017-08-25T15:24:06.829Z,12.66
2017-08-25T15:26:32.941Z,12.64
2017-08-25T15:28:59.101Z,11.88
2017-08-25T15:31:25.210Z,12.20
2017-08-25T15:33:51.353Z,12.54
2017-08-25T15:36:17.458Z,11.85
2017-08-25T15:38:43.579Z,12.85
2017-08-25T15:41:09.639Z,12.58
2017-08-25T15:43:35.732Z,13.45
2017-08-25T15:46:01.806Z,14.13
2017-08-25T15:48:27.928Z,14.15
2017-08-25T15:50:54.116Z,14.76
2017-08-25T15:53:20.203Z,13.46
2017-08-25T15:55:46.325Z,13.72
2017-08-25T15:58:12.417Z,14.31
2017-08-25T16:00:38.559Z,14.98
2017-08-25T16:03:04.673Z,14.48
2017-08-25T16:05:30.772Z,14.19
2017-08-25T16:07:56.865Z,15.24
2017-08-25T16:10:23.011Z,14.55
2017-08-25T16:12:49.078Z,14.89
2017-08-25T16:15:15.187Z,15.20
2017-08-25T16:17:41.258Z,15.48
2017-08-25T16:20:07.363Z,16.14
2017-08-25T16:22:33.525Z,17.36
2017-08-25T16:24:59.606Z,17.50
2017-08-25T16:27:25.797Z,17.81
2017-08-25T16:29:51.868Z,18.39
2017-08-25T16:32:17.971Z,18.26
2017-08-25T16:34:44.088Z,18.01
2017-08-25T16:37:10.143Z,18.28
2017-08-25T16:39:36.257Z,17.41
2017-08-25T16:42:02.396Z,17.17
2017-08-25T16:44:28.504Z,17.27
2017-08-25T16:46:54.630Z,17.96
2017-08-25T16:49:20.746Z,17.55
2017-08-25T16:51:46.846Z,18.60
2017-08-25T16:54:12.934Z,18.99
2017-08-25T16:56:39.032Z,19.76
2017-08-25T16:59:05.150Z,21.75
2017-08-25T17:01:31.226Z,21.86
2017-08-25T17:03:57.527Z,22.30
2017-08-25T17:06:23.647Z,23.49
2017-08-25T17:08:49.770Z,24.28
2017-08-25T17:11:16.114Z,25.37
2017-08-25T17:13:42.219Z,25.57
2017-08-25T17:16:08.302Z,26.33
2017-08-25T17:18:34.399Z,27.87
2017-08-25T17:21:00.520Z,28.97
2017-08-25T17:23:26.594Z,30.12
2017-08-25T17:25:52.696Z,30.38
2017-08-25T17:28:18.799Z,31.25
2017-08-25T17:30:44.922Z,32.14
2017-08-25T17:33:11.046Z,32.64
2017-08-25T17:35:37.145Z,33.12
2017-08-25T17:38:03.282Z,33.88
2017-08-25T17:40:29.399Z,34.24
2017-08-25T17:42:55.482Z,34.81
2017-08-25T17:45:21.552Z,35.15
2017-08-25T17:47:47.706Z,35.43
2017-08-25T17:50:13.842Z,35.71
2017-08-25T17:52:39.914Z,37.56
2017-08-25T17:55:06.284Z,36.88
2017-08-25T17:57:32.364Z,37.73
2017-08-25T17:59:58.433Z,38.09
2017-08-25T18:02:24.695Z,38.54
2017-08-25T18:04:50.796Z,39.75
2017-08-25T18:07:16.946Z,40.49
2017-08-25T18:09:43.088Z,41.71
2017-08-25T18:12:09.219Z,41.00
2017-08-25T18:14:35.311Z,42.00
2017-08-25T18:17:01.420Z,42.97
2017-08-25T18:19:27.498Z,43.21
2017-08-25T18:21:53.601Z,43.76
2017-08-25T18:24:19.802Z,43.94
2017-08-25T18:26:45.952Z,45.82
2017-08-25T18:29:12.077Z,46.18
2017-08-25T18:31:38.161Z,47.05
2017-08-25T18:34:04.257Z,47.95
2017-08-25T18:36:30.367Z,48.10
2017-08-25T18:38:56.483Z,47.69
2017-08-25T18:41:22.582Z,48.23
2017-08-25T18:43:48.700Z,48.98
2017-08-25T18:46:14.795Z,49.58
2017-08-25T18:48:40.875Z,49.93
2017-08-25T18:51:06.985Z,50.67
2017-08-25T18:53:33.055Z,50.41
2017-08-25T18:55:59.133Z,50.91
2017-08-25T18:58:25.248Z,51.16
2017-08-25T19:00:51.343Z,51.36
2017-08-25T19:03:17.598Z,51.24
2017-08-25T19:05:43.719Z,50.85
2017-08-25T19:08:09.855Z,51.82
2017-08-25T19:10:36.181Z,52.32
2017-08-25T19:13:02.238Z,51.71
2017-08-25T19:15:28.317Z,52.26
2017-08-25T19:17:54.426Z,51.81
2017-08-25T19:20:20.505Z,52.28
2017-08-25T19:22:46.575Z,52.47
2017-08-25T19:25:12.674Z,52.41
2017-08-25T19:27:38.748Z,52.35
2017-08-25T19:30:04.832Z,52.82
2017-08-25T19:32:30.954Z,53.24
2017-08-25T19:34:57.055Z,53.36
2017-08-25T19:37:23.170Z,53.91
2017-08-25T19:39:49.301Z,54.07
2017-08-25T19:42:15.404Z,54.28
2017-08-25T19:44:41.518Z,54.54
2017-08-25T19:47:07.599Z,54.85
2017-08-25T19:49:33.691Z,54.10
2017-08-25T19:51:59.794Z,54.06
2017-08-25T19:54:25.920Z,53.90
2017-08-25T19:56:52.021Z,54.15
2017-08-25T19:59:18.141Z,54.30
2017-08-25T20:01:44.279Z,54.53
2017-08-25T20:04:10.389Z,55.27
2017-08-25T20:06:36.479Z,54.49
2017-08-25T20:09:02.607Z,55.19
2017-08-25T20:11:28.725Z,55.56
2017-08-25T20:13:54.790Z,55.73
2017-08-25T20:16:20.845Z,55.68
2017-08-25T20:18:46.981Z,55.52
2017-08-25T20:21:13.056Z,55.60
2017-08-25T20:23:39.164Z,55.50
2017-08-25T20:26:05.847Z,55.13
2017-08-25T20:28:31.904Z,55.22
2017-08-25T20:30:57.995Z,55.85
2017-08-25T20:33:26.097Z,55.95
2017-08-25T20:35:52.187Z,56.47
2017-08-25T20:38:18.290Z,56.48
2017-08-25T20:40:44.399Z,56.88
2017-08-25T20:43:10.529Z,57.23
2017-08-25T20:45:36.586Z,57.68
2017-08-25T20:48:02.684Z,58.15
2017-08-25T20:50:28.765Z,59.20
2017-08-25T20:52:54.855Z,59.44
2017-08-25T20:55:20.921Z,59.46
2017-08-25T20:57:47.022Z,59.21
2017-08-25T21:00:13.194Z,59.15
2017-08-25T21:02:39.437Z,58.74
2017-08-25T21:05:05.567Z,58.93
2017-08-25T21:07:31.695Z,59.05
2017-08-25T21:09:57.814Z,59.13
2017-08-25T21:12:24.075Z,59.04
2017-08-25T21:14:50.250Z,59.25
2017-08-25T21:17:16.327Z,59.33
2017-08-25T21:19:42.404Z,59.55
2017-08-25T21:22:08.475Z,59.11
2017-08-25T21:24:34.549Z,59.13
2017-08-25T21:27:00.638Z,59.40
2017-08-25T21:29:26.742Z,59.86
2017-08-25T21:31:52.839Z,60.51
2017-08-25T21:34:18.946Z,60.50
2017-08-25T21:36:45.008Z,60.26
2017-08-25T21:39:11.106Z,60.43
2017-08-25T21:41:37.227Z,60.04
2017-08-25T21:44:03.309Z,59.92
2017-08-25T21:46:29.417Z,59.74
2017-08-25T21:48:56.352Z,59.76
2017-08-25T21:51:22.480Z,60.43
2017-08-25T21:53:48.570Z,60.42
2017-08-25T21:56:14.668Z,60.07
2017-08-25T21:58:40.756Z,59.59
2017-08-25T22:01:06.920Z,59.59
2017-08-25T22:03:33.065Z,60.33
2017-08-25T22:05:59.272Z,60.97
2017-08-25T22:08:25.460Z,60.74
2017-08-25T22:10:51.574Z,60.21
2017-08-25T22:13:17.648Z,60.20
2017-08-25T22:15:43.758Z,60.31
2017-08-25T22:18:09.853Z,60.66
2017-08-25T22:20:35.953Z,61.03
2017-08-25T22:23:02.078Z,61.84
2017-08-25T22:25:28.186Z,61.08
2017-08-25T22:27:54.251Z,61.38
2017-08-25T22:30:20.378Z,61.32
2017-08-25T22:32:46.476Z,61.34
2017-08-25T22:35:12.545Z,61.65
2017-08-25T22:37:38.718Z,61.56
2017-08-25T22:40:04.799Z,61.62
2017-08-25T22:42:30.965Z,61.92
2017-08-25T22:44:57.073Z,61.90
2017-08-25T22:47:23.142Z,62.43
2017-08-25T22:49:49.242Z,62.07
2017-08-25T22:52:15.343Z,61.82
2017-08-25T22:54:41.435Z,61.80
2017-08-25T22:57:07.513Z,61.85
2017-08-25T22:59:33.604Z,61.87
2017-08-25T23:01:59.712Z,62.06
2017-08-25T23:04:25.841Z,62.53
2017-08-25T23:06:51.916Z,62.98
2017-08-25T23:09:18.064Z,62.43
2017-08-25T23:11:44.175Z,62.50
2017-08-25T23:14:10.302Z,62.49
2017-08-25T23:16:36.420Z,62.68
2017-08-25T23:19:02.513Z,62.73
2017-08-25T23:21:28.600Z,62.62
2017-08-25T23:23:54.707Z,62.33
2017-08-25T23:26:20.800Z,62.34
2017-08-25T23:28:46.902Z,62.25
2017-08-25T23:31:13.017Z,62.57
2017-08-25T23:33:39.077Z,62.50
2017-08-25T23:36:05.140Z,62.38
2017-08-25T23:38:31.226Z,62.16
2017-08-25T23:40:57.303Z,62.55
2017-08-25T23:43:23.429Z,62.10
2017-08-25T23:45:49.694Z,62.35
2017-08-25T23:48:15.776Z,62.44
2017-08-25T23:50:41.833Z,62.51
2017-08-25T23:53:07.928Z,63.44
2017-08-25T23:55:33.987Z,63.71
2017-08-25T23:58:00.080Z,64.13
